Time;durP1;ratioP1;P1;durP2;ratioP2;P2;SDS_P1;SDS_P2;PMS_P1;PMS_P2;Temp;Humidity;BMP_temperature;BMP_pressure;BME280_temperature;BME280_humidity;BME280_pressure;Samples;Min_cycle;Max_cycle;Signal;HPM_P1;HPM_P2
2021/05/05 00:00:25;;;;;;;28.60;16.32;;;;;;;4.64;71.52;93893.36;1764481;81;21155;-54
2021/05/05 00:02:53;;;;;;;25.88;14.58;;;;;;;4.53;71.60;93913.32;1764438;81;21079;-53
2021/05/05 00:05:21;;;;;;;27.65;16.80;;;;;;;4.38;71.85;93916.23;1764467;81;21376;-52
2021/05/05 00:07:49;;;;;;;29.18;17.30;;;;;;;4.23;72.36;93900.08;1764351;80;21131;-53
2021/05/05 00:10:17;;;;;;;30.92;18.30;;;;;;;4.13;72.68;93899.77;1764423;80;21532;-53
2021/05/05 00:12:45;;;;;;;29.42;18.50;;;;;;;4.16;73.00;93902.22;1764461;81;21079;-52
2021/05/05 00:15:20;;;;;;;29.10;17.65;;;;;;;4.16;73.05;93898.91;1764706;81;21054;-52
2021/05/05 00:17:48;;;;;;;30.92;17.50;;;;;;;4.20;72.94;93895.50;1764655;80;21389;-53
2021/05/05 00:20:17;;;;;;;27.00;18.02;;;;;;;4.29;72.75;93891.59;1764577;81;21100;-51
2021/05/05 00:22:45;;;;;;;31.93;17.23;;;;;;;4.24;72.71;93903.59;1764573;80;21043;-53
2021/05/05 00:25:13;;;;;;;23.15;14.95;;;;;;;4.23;72.64;93876.95;1764609;81;21496;-53
2021/05/05 00:27:41;;;;;;;23.42;15.93;;;;;;;4.25;72.75;93892.25;1764620;80;21150;-53
2021/05/05 00:30:11;;;;;;;27.48;16.27;;;;;;;4.16;72.51;93894.83;1764601;81;21158;-52
2021/05/05 00:32:39;;;;;;;24.60;17.35;;;;;;;4.13;72.59;93881.30;1747451;81;21190;-53
2021/05/05 00:35:08;;;;;;;30.40;17.70;;;;;;;4.10;72.88;93895.19;1764589;81;21059;-53
2021/05/05 00:37:36;;;;;;;24.00;16.10;;;;;;;4.14;72.65;93884.97;1764633;80;21160;-54
2021/05/05 00:40:06;;;;;;;26.42;16.57;;;;;;;4.12;72.65;93869.66;1764641;81;21047;-52
2021/05/05 00:42:34;;;;;;;22.22;16.87;;;;;;;4.11;72.53;93874.94;1764699;81;22119;-55
2021/05/05 00:45:06;;;;;;;24.98;16.55;;;;;;;3.97;72.86;93868.48;1764542;80;21095;-56
2021/05/05 00:47:34;;;;;;;26.97;16.60;;;;;;;3.92;73.23;93874.45;1764884;80;21080;-52
2021/05/05 00:50:05;;;;;;;23.52;15.98;;;;;;;3.80;73.46;93861.52;1764592;81;21083;-53
2021/05/05 00:52:33;;;;;;;23.12;14.20;;;;;;;3.72;73.94;93882.50;1764616;81;21083;-54
2021/05/05 00:55:02;;;;;;;19.98;14.40;;;;;;;3.63;74.14;93876.30;1761021;80;21189;-52
2021/05/05 00:57:30;;;;;;;21.05;14.47;;;;;;;3.58;74.21;93876.80;1758969;81;21146;-53
2021/05/05 00:59:58;;;;;;;22.95;14.65;;;;;;;3.61;74.38;93880.03;1758890;81;21155;-53
2021/05/05 01:02:26;;;;;;;19.23;15.00;;;;;;;3.71;74.71;93869.48;1758944;81;21623;-53
2021/05/05 01:04:55;;;;;;;20.48;13.83;;;;;;;3.84;74.36;93867.63;1758884;81;21083;-53
2021/05/05 01:07:23;;;;;;;24.98;15.88;;;;;;;3.96;74.00;93872.39;1758892;81;21146;-54
2021/05/05 01:09:53;;;;;;;27.25;19.45;;;;;;;4.01;73.48;93876.53;1758846;81;21095;-53
2021/05/05 01:12:21;;;;;;;55.20;38.38;;;;;;;3.97;73.61;93891.61;1758874;81;21151;-52
2021/05/05 01:14:50;;;;;;;32.35;17.50;;;;;;;3.91;73.31;93881.66;1758848;80;21143;-53
2021/05/05 01:17:18;;;;;;;21.30;14.90;;;;;;;3.85;73.51;93869.16;1758958;81;21059;-53
2021/05/05 01:19:48;;;;;;;29.20;17.57;;;;;;;3.86;73.45;93881.56;1758933;81;21190;-53
2021/05/05 01:22:17;;;;;;;31.15;17.98;;;;;;;3.79;73.55;93888.55;1758844;81;21119;-53
2021/05/05 01:24:45;;;;;;;28.95;17.55;;;;;;;3.69;73.47;93875.95;1758875;80;21072;-53
2021/05/05 01:27:13;;;;;;;73.17;43.80;;;;;;;3.57;73.67;93883.44;1758922;81;21509;-54
2021/05/05 01:29:42;;;;;;;40.55;25.15;;;;;;;3.54;74.10;93872.02;1758936;81;21076;-53
2021/05/05 01:32:10;;;;;;;35.68;19.77;;;;;;;3.57;73.98;93876.64;1758893;81;21357;-53
2021/05/05 01:34:38;;;;;;;34.95;19.17;;;;;;;3.59;73.87;93867.46;1758803;80;21174;-52
2021/05/05 01:37:07;;;;;;;31.52;20.62;;;;;;;3.58;74.02;93859.13;1758901;80;21060;-53
2021/05/05 01:39:35;;;;;;;39.83;25.95;;;;;;;3.70;74.30;93866.59;1758886;81;21088;-53
2021/05/05 01:42:04;;;;;;;36.90;23.02;;;;;;;3.85;73.83;93858.27;1758914;80;21249;-51
2021/05/05 01:44:38;;;;;;;35.80;21.50;;;;;;;3.90;73.68;93857.75;1758998;80;21198;-51
2021/05/05 01:47:11;;;;;;;29.92;18.40;;;;;;;3.98;73.54;93867.29;1758891;81;21079;-52
2021/05/05 01:49:45;;;;;;;26.93;18.35;;;;;;;4.08;73.25;93860.05;1759051;81;21127;-53
2021/05/05 01:52:14;;;;;;;26.20;18.10;;;;;;;4.08;72.62;93859.44;1719259;81;21079;-52
2021/05/05 01:54:42;;;;;;;26.80;19.02;;;;;;;4.01;72.65;93860.21;1758722;81;21127;-52
2021/05/05 01:57:32;;;;;;;32.30;19.95;;;;;;;3.92;72.92;93864.92;1758877;81;21358;-53
2021/05/05 02:00:05;;;;;;;33.48;20.55;;;;;;;3.86;72.95;93858.44;1758835;81;21159;-53
2021/05/05 02:02:35;;;;;;;34.13;21.02;;;;;;;3.84;72.98;93863.55;1756128;80;21071;-54
2021/05/05 02:05:06;;;;;;;26.48;18.57;;;;;;;3.84;73.05;93856.75;1758804;81;21088;-52
2021/05/05 02:07:36;;;;;;;41.13;20.65;;;;;;;3.91;73.28;93853.84;1756737;80;21641;-53
2021/05/05 02:10:10;;;;;;;25.23;18.42;;;;;;;4.02;72.98;93854.36;1758938;81;21194;-53
2021/05/05 02:12:39;;;;;;;28.07;19.02;;;;;;;4.09;72.57;93855.53;1758843;81;21159;-52
2021/05/05 02:15:11;;;;;;;26.05;19.45;;;;;;;4.11;72.58;93857.25;1758850;81;21167;-53
2021/05/05 02:17:42;;;;;;;29.00;17.75;;;;;;;4.15;72.21;93855.20;1758872;81;21091;-53
2021/05/05 02:20:12;;;;;;;26.10;18.25;;;;;;;4.09;72.08;93854.16;1719213;81;21151;-53
2021/05/05 02:22:40;;;;;;;29.75;18.17;;;;;;;4.00;71.91;93861.41;1758854;80;21264;-52
2021/05/05 02:25:10;;;;;;;30.27;16.85;;;;;;;3.88;72.32;93855.31;1758794;81;21164;-54
2021/05/05 02:27:39;;;;;;;26.50;18.60;;;;;;;3.81;72.74;93856.82;1719019;80;21154;-53
2021/05/05 02:30:10;;;;;;;41.73;19.45;;;;;;;3.71;72.89;93858.61;1758749;80;21187;-54
2021/05/05 02:32:40;;;;;;;28.85;19.12;;;;;;;3.60;73.05;93858.11;1755943;81;21158;-53
2021/05/05 02:35:10;;;;;;;31.23;19.15;;;;;;;3.59;73.51;93861.24;1758796;80;21199;-53
2021/05/05 02:37:38;;;;;;;30.52;18.65;;;;;;;3.61;73.44;93858.28;1758884;80;21209;-52
2021/05/05 02:40:08;;;;;;;27.48;17.65;;;;;;;3.65;73.58;93860.31;1758837;81;21103;-54
2021/05/05 02:42:36;;;;;;;33.42;18.95;;;;;;;3.74;73.41;93861.86;1758938;81;21682;-53
2021/05/05 02:45:06;;;;;;;34.33;16.70;;;;;;;3.79;73.24;93870.09;1758944;81;21484;-54
2021/05/05 02:47:34;;;;;;;36.58;18.12;;;;;;;3.81;73.07;93875.28;1758871;81;21132;-52
2021/05/05 02:50:04;;;;;;;25.82;16.93;;;;;;;3.85;73.05;93867.05;1758797;80;21139;-53
2021/05/05 02:52:32;;;;;;;25.30;16.67;;;;;;;3.91;73.05;93868.80;1758880;80;21155;-54
2021/05/05 02:55:00;;;;;;;24.52;16.60;;;;;;;3.98;72.88;93863.20;1760333;81;21166;-53
2021/05/05 02:57:28;;;;;;;24.80;16.60;;;;;;;4.11;72.84;93879.02;1764512;81;21071;-52
2021/05/05 02:59:56;;;;;;;22.42;14.87;;;;;;;4.21;72.24;93869.06;1764512;81;21192;-52
2021/05/05 03:02:24;;;;;;;17.12;13.85;;;;;;;4.22;72.19;93872.70;1764405;81;21083;-54
2021/05/05 03:04:53;;;;;;;23.62;14.95;;;;;;;4.28;71.87;93877.03;1764528;81;21516;-53
2021/05/05 03:07:23;;;;;;;24.98;15.75;;;;;;;4.26;71.52;93892.42;1764405;80;21123;-53
2021/05/05 03:09:51;;;;;;;24.27;16.10;;;;;;;4.23;71.60;93881.64;1764540;81;21131;-53
2021/05/05 03:12:19;;;;;;;25.10;15.45;;;;;;;4.16;71.80;93875.78;1764559;80;23447;-53
2021/05/05 03:14:49;;;;;;;18.32;12.93;;;;;;;4.18;71.82;93876.11;1764453;81;21146;-54
2021/05/05 03:17:17;;;;;;;26.07;14.93;;;;;;;4.24;71.90;93884.53;1764465;80;21079;-55
2021/05/05 03:19:46;;;;;;;23.18;15.25;;;;;;;4.38;71.55;93896.42;1764407;80;21078;-52
2021/05/05 03:22:14;;;;;;;18.55;13.85;;;;;;;4.30;71.07;93889.61;1764469;80;21080;-52
2021/05/05 03:24:42;;;;;;;29.02;16.37;;;;;;;4.22;71.17;93889.03;1764484;81;21196;-53
2021/05/05 03:27:10;;;;;;;27.40;15.98;;;;;;;4.15;71.44;93881.05;1764387;81;21127;-51
2021/05/05 03:29:38;;;;;;;20.17;15.78;;;;;;;4.20;71.57;93898.83;1764487;81;21174;-52
2021/05/05 03:32:06;;;;;;;30.37;19.37;;;;;;;4.16;71.73;93892.11;1764454;81;21076;-54
2021/05/05 03:34:34;;;;;;;25.10;16.17;;;;;;;4.21;71.83;93888.86;1764458;81;21043;-53
2021/05/05 03:37:03;;;;;;;26.12;16.73;;;;;;;4.28;71.75;93893.36;1764470;81;21194;-54
2021/05/05 03:39:30;;;;;;;49.63;29.57;;;;;;;4.28;71.83;93898.20;1764412;81;21166;-53
2021/05/05 03:41:59;;;;;;;37.30;20.05;;;;;;;4.36;72.16;93895.48;1764569;81;21226;-54
2021/05/05 03:44:27;;;;;;;33.60;17.87;;;;;;;4.42;71.58;93896.48;1764472;81;21079;-54
2021/05/05 03:46:55;;;;;;;25.55;17.15;;;;;;;4.32;71.60;93887.23;1764449;80;21496;-53
2021/05/05 03:49:23;;;;;;;27.07;18.20;;;;;;;4.24;71.81;93894.06;1764508;80;22268;-52
2021/05/05 03:51:52;;;;;;;30.10;19.82;;;;;;;4.15;72.02;93901.47;1764412;81;21146;-52
2021/05/05 03:54:20;;;;;;;50.35;24.40;;;;;;;4.11;72.26;93902.73;1764430;81;21143;-53
2021/05/05 03:56:48;;;;;;;51.90;23.40;;;;;;;4.08;72.56;93900.26;1764352;79;21124;-52
2021/05/05 03:59:17;;;;;;;54.70;26.17;;;;;;;4.15;72.90;93902.05;1764317;80;21091;-52
2021/05/05 04:01:46;;;;;;;59.75;30.37;;;;;;;4.29;73.09;93909.28;1764451;80;21368;-54
2021/05/05 04:04:14;;;;;;;40.85;22.50;;;;;;;4.46;72.65;93905.93;1764326;81;21118;-53
2021/05/05 04:06:43;;;;;;;39.30;22.32;;;;;;;4.54;72.51;93906.68;1764515;80;21076;-53
2021/05/05 04:09:12;;;;;;;48.58;24.95;;;;;;;4.66;72.43;93914.16;1764437;81;21138;-52
2021/05/05 04:11:40;;;;;;;40.38;21.73;;;;;;;4.86;72.49;93912.64;1764506;81;21560;-56
2021/05/05 04:14:09;;;;;;;42.80;27.60;;;;;;;5.12;71.82;93925.16;1764414;81;21415;-52
2021/05/05 04:16:55;;;;;;;46.90;22.40;;;;;;;5.28;71.23;93919.78;1764458;81;21072;-53
2021/05/05 04:19:41;;;;;;;42.80;22.27;;;;;;;5.41;70.92;93928.02;1764456;81;21123;-54
2021/05/05 04:22:28;;;;;;;63.28;27.55;;;;;;;5.46;70.17;93925.48;1764554;80;21583;-54
2021/05/05 04:25:15;;;;;;;82.22;40.40;;;;;;;5.32;69.97;93922.42;1764495;80;21071;-53
2021/05/05 04:27:43;;;;;;;85.20;45.03;;;;;;;5.27;70.05;93917.51;1764484;81;21241;-54
2021/05/05 04:30:17;;;;;;;131.00;63.60;;;;;;;5.32;70.28;93915.59;1764387;81;21130;-54
2021/05/05 04:32:48;;;;;;;79.70;36.77;;;;;;;5.47;70.06;93922.17;1764734;80;21480;-53
2021/05/05 04:35:17;;;;;;;;;;;;;;;5.54;70.02;93920.59;1767134;81;21499;-54
2021/05/05 04:37:45;;;;;;;61.53;34.85;;;;;;;5.60;69.57;93918.87;1756080;81;20231;-53
2021/05/05 04:40:13;;;;;;;69.72;31.33;;;;;;;5.68;69.75;93920.17;1756083;81;23455;-51
2021/05/05 04:42:41;;;;;;;49.67;26.93;;;;;;;5.83;69.81;93916.59;1756032;80;21126;-53
2021/05/05 04:45:11;;;;;;;70.00;33.92;;;;;;;6.03;69.67;93917.17;1755996;81;21653;-54
2021/05/05 04:47:39;;;;;;;70.95;33.18;;;;;;;6.26;69.09;93925.59;1756073;81;21102;-54
2021/05/05 04:50:09;;;;;;;64.30;33.33;;;;;;;6.32;68.43;93916.41;1756089;81;21098;-56
2021/05/05 04:52:37;;;;;;;64.85;33.45;;;;;;;6.40;68.07;93907.38;1756094;80;21304;-54
2021/05/05 04:55:07;;;;;;;74.60;35.52;;;;;;;6.43;68.01;93915.47;1755626;81;21506;-54
2021/05/05 04:57:35;;;;;;;78.28;39.05;;;;;;;6.48;68.05;93908.69;1750420;80;21067;-54
2021/05/05 05:00:09;;;;;;;91.75;44.53;;;;;;;6.52;67.59;93906.59;1750596;82;21090;-54
2021/05/05 05:02:37;;;;;;;96.70;46.30;;;;;;;6.53;67.61;93919.05;1750751;82;21475;-54
2021/05/05 05:05:07;;;;;;;89.65;43.23;;;;;;;6.57;67.70;93916.37;1750619;80;22372;-53
2021/05/05 05:07:36;;;;;;;85.50;39.73;;;;;;;6.69;68.10;93916.17;1750599;82;21479;-54
2021/05/05 05:10:06;;;;;;;59.58;30.37;;;;;;;6.87;67.97;93904.77;1750539;81;21070;-53
2021/05/05 05:12:34;;;;;;;53.23;27.50;;;;;;;7.06;67.17;93916.63;1750580;80;21610;-55
2021/05/05 05:15:06;;;;;;;64.72;32.05;;;;;;;7.18;66.57;93910.48;1750581;81;21174;-54
2021/05/05 05:17:34;;;;;;;70.83;35.65;;;;;;;7.30;66.01;93904.80;1750574;82;21199;-53
2021/05/05 05:20:05;;;;;;;65.47;32.05;;;;;;;7.38;65.85;93908.17;1750492;82;21594;-53
2021/05/05 05:22:34;;;;;;;79.00;35.63;;;;;;;7.43;65.43;93908.98;1750522;82;21119;-55
2021/05/05 05:25:05;;;;;;;81.85;32.80;;;;;;;7.47;64.90;93906.88;1750539;80;21213;-54
2021/05/05 05:27:33;;;;;;;61.53;25.65;;;;;;;7.51;64.79;93910.86;1765354;80;21084;-55
2021/05/05 05:30:01;;;;;;;34.38;20.92;;;;;;;7.54;64.75;93912.08;1750716;80;22306;-54
2021/05/05 05:32:30;;;;;;;40.15;20.90;;;;;;;7.58;64.68;93916.06;1747128;80;21597;-55
2021/05/05 05:34:59;;;;;;;48.05;21.80;;;;;;;7.56;64.35;93916.49;1750158;80;21205;-55
2021/05/05 05:37:28;;;;;;;43.55;23.15;;;;;;;7.53;64.51;93914.66;1755553;80;21218;-56
2021/05/05 05:39:56;;;;;;;59.67;28.10;;;;;;;7.57;64.67;93904.36;1760670;80;21182;-54
2021/05/05 05:42:25;;;;;;;49.88;27.58;;;;;;;7.67;64.76;93905.17;1711734;82;22712;-54
2021/05/05 05:44:53;;;;;;;54.25;27.45;;;;;;;7.88;64.44;93909.83;1744131;80;21194;-54
2021/05/05 05:47:22;;;;;;;51.65;25.90;;;;;;;7.98;64.15;93901.20;1758708;80;21260;-59
2021/05/05 05:49:51;;;;;;;47.30;24.05;;;;;;;8.06;64.14;93894.22;1757515;81;21132;-61
2021/05/05 05:52:19;;;;;;;43.55;24.35;;;;;;;8.11;63.86;93904.58;1752580;81;21226;-59
2021/05/05 05:54:47;;;;;;;44.38;23.98;;;;;;;8.18;63.83;93898.87;1752864;80;21505;-58
2021/05/05 05:57:16;;;;;;;45.10;25.48;;;;;;;8.28;63.57;93892.81;1750201;80;21629;-54
2021/05/05 05:59:45;;;;;;;38.73;23.90;;;;;;;8.48;63.48;93898.05;1746862;80;21149;-53
2021/05/05 06:02:12;;;;;;;36.80;23.52;;;;;;;8.66;63.30;93889.82;1733118;80;21739;-57
2021/05/05 06:04:41;;;;;;;35.48;19.45;;;;;;;8.83;62.99;93897.91;1750432;80;21200;-53
2021/05/05 06:07:09;;;;;;;44.48;22.80;;;;;;;8.98;62.19;93900.22;1741101;80;21435;-58
2021/05/05 06:09:37;;;;;;;36.38;19.42;;;;;;;9.20;61.19;93899.44;1746110;80;21193;-56
2021/05/05 06:12:06;;;;;;;24.47;16.95;;;;;;;9.29;60.22;93900.83;1746154;80;21167;-53
2021/05/05 06:14:33;;;;;;;30.60;14.70;;;;;;;9.36;59.34;93901.88;1745616;80;21218;-58
2021/05/05 06:17:03;;;;;;;24.85;12.20;;;;;;;9.38;58.57;93899.42;1743257;80;21077;-57
2021/05/05 06:19:31;;;;;;;32.85;12.35;;;;;;;9.43;58.22;93898.20;1746342;80;21200;-56
2021/05/05 06:21:59;;;;;;;21.62;12.50;;;;;;;9.53;58.08;93889.34;1745822;81;21195;-53
2021/05/05 06:24:28;;;;;;;27.10;14.87;;;;;;;9.69;57.97;93881.54;1744707;81;22202;-52
2021/05/05 06:26:55;;;;;;;23.00;13.58;;;;;;;9.96;57.83;93873.83;1746973;81;21138;-52
2021/05/05 06:29:24;;;;;;;31.45;15.83;;;;;;;10.25;57.56;93868.52;1742433;81;21207;-53
2021/05/05 06:31:52;;;;;;;34.05;20.82;;;;;;;10.47;57.64;93869.00;1741323;81;21222;-54
2021/05/05 06:34:20;;;;;;;26.93;14.05;;;;;;;10.73;57.24;93863.20;1734593;80;21444;-57
2021/05/05 06:36:47;;;;;;;22.02;12.28;;;;;;;10.90;55.36;93867.20;1745164;81;21642;-56
2021/05/05 06:39:16;;;;;;;17.92;8.43;;;;;;;10.94;54.50;93860.89;1737030;81;21066;-56
2021/05/05 06:41:43;;;;;;;16.15;7.35;;;;;;;10.95;53.49;93858.28;1744930;80;21075;-52
2021/05/05 06:44:11;;;;;;;15.78;8.35;;;;;;;10.98;52.80;93857.97;1745498;80;22505;-54
2021/05/05 06:46:44;;;;;;;19.25;8.23;;;;;;;11.00;52.43;93850.00;1743723;82;21158;-57
2021/05/05 06:49:14;;;;;;;18.70;7.85;;;;;;;11.06;52.25;93844.75;1746693;80;21600;-66
2021/05/05 06:51:42;;;;;;;17.20;6.97;;;;;;;11.15;51.67;93843.28;1744439;80;21216;-56
2021/05/05 06:54:11;;;;;;;8.85;7.10;;;;;;;11.34;52.01;93839.76;1741958;80;21142;-57
2021/05/05 06:56:40;;;;;;;17.37;7.47;;;;;;;11.57;50.96;93842.44;1752852;80;21393;-55
2021/05/05 06:59:08;;;;;;;17.50;8.65;;;;;;;11.68;50.95;93841.89;1738394;81;21182;-57
2021/05/05 07:01:38;;;;;;;12.07;7.37;;;;;;;11.81;50.92;93833.47;1748049;80;21200;-52
2021/05/05 07:04:08;;;;;;;20.27;7.08;;;;;;;12.02;50.11;93828.77;1776687;79;21186;-53
2021/05/05 07:06:37;;;;;;;16.85;8.55;;;;;;;12.16;49.58;93814.97;1768056;79;21127;-52
2021/05/05 07:09:08;;;;;;;24.27;15.18;;;;;;;12.35;48.96;93825.90;1766934;79;22381;-57
2021/05/05 07:11:39;;;;;;;13.15;7.83;;;;;;;12.47;48.21;93827.55;1737795;80;21172;-52
2021/05/05 07:14:09;;;;;;;16.05;6.87;;;;;;;12.60;47.73;93813.59;1738620;81;21193;-56
2021/05/05 07:16:37;;;;;;;19.95;7.62;;;;;;;12.73;47.70;93813.98;1742384;80;21134;-52
2021/05/05 07:19:05;;;;;;;13.30;6.95;;;;;;;12.82;47.07;93813.08;1761125;80;21546;-53
2021/05/05 07:21:34;;;;;;;28.05;7.47;;;;;;;12.81;46.67;93813.72;1764718;80;22240;-53
2021/05/05 07:24:03;;;;;;;13.35;6.70;;;;;;;12.76;46.85;93815.02;1727477;81;21634;-56
2021/05/05 07:26:31;;;;;;;14.40;6.70;;;;;;;12.77;47.04;93817.92;1731167;81;21170;-53
2021/05/05 07:29:01;;;;;;;37.03;9.93;;;;;;;12.76;46.86;93819.16;1763793;81;21220;-53
2021/05/05 07:31:30;;;;;;;56.85;12.98;;;;;;;12.71;47.56;93815.72;1770151;80;22090;-53
2021/05/05 07:34:00;;;;;;;35.20;11.38;;;;;;;12.68;48.67;93815.31;1766969;79;21651;-53
2021/05/05 07:36:30;;;;;;;27.22;11.97;;;;;;;12.65;49.07;93813.49;1764053;80;21235;-57
2021/05/05 07:45:06;;;;;;;22.55;11.85;;;;;;;12.56;50.05;93812.27;1741135;80;21201;-54
2021/05/05 07:47:10;;;;;;;24.70;12.00;;;;;;;12.42;50.38;93807.55;1774650;80;21438;-54
2021/05/05 07:49:47;;;;;;;36.25;13.78;;;;;;;12.40;50.76;93797.63;1747910;79;21764;-57
2021/05/05 07:52:11;;;;;;;39.95;14.47;;;;;;;12.48;51.06;93802.12;1764907;80;21162;-55
2021/05/05 07:54:39;;;;;;;32.50;15.53;;;;;;;12.55;51.07;93792.81;1766585;79;21094;-56
2021/05/05 07:57:06;;;;;;;33.85;14.07;;;;;;;12.70;51.55;93789.37;1762883;79;21191;-54
2021/05/05 07:59:34;;;;;;;27.65;13.93;;;;;;;12.91;51.26;93783.97;1762318;80;21567;-58
2021/05/05 08:02:03;;;;;;;29.10;14.28;;;;;;;13.08;51.05;93773.90;1740813;80;21213;-55
2021/05/05 08:04:33;;;;;;;32.93;16.23;;;;;;;13.30;51.06;93776.88;1753875;80;21216;-56
2021/05/05 08:07:01;;;;;;;20.88;11.95;;;;;;;13.51;50.92;93772.80;1754408;80;21581;-55
2021/05/05 08:09:31;;;;;;;29.00;13.20;;;;;;;13.67;50.02;93774.31;1742190;80;21222;-55
2021/05/05 08:11:59;;;;;;;30.10;12.50;;;;;;;13.84;49.63;93775.85;1740532;81;21195;-55
2021/05/05 08:14:30;;;;;;;25.50;13.65;;;;;;;14.04;49.89;93770.22;1740001;80;21216;-53
2021/05/05 08:17:00;;;;;;;19.15;9.05;;;;;;;14.28;51.78;93767.88;1739676;80;21152;-57
2021/05/05 08:19:28;;;;;;;15.90;9.35;;;;;;;14.56;51.84;93766.16;1751110;80;21067;-61
2021/05/05 08:21:56;;;;;;;24.07;11.60;;;;;;;14.88;50.87;93768.95;1732720;81;21186;-57
2021/05/05 08:24:27;;;;;;;19.48;9.30;;;;;;;15.08;50.46;93768.77;1746329;80;21327;-54
2021/05/05 08:26:58;;;;;;;14.00;7.65;;;;;;;15.28;50.03;93762.25;1748628;81;21169;-55
2021/05/05 08:29:28;;;;;;;15.30;7.95;;;;;;;15.43;48.37;93765.59;1739720;81;21264;-59
2021/05/05 08:31:57;;;;;;;22.35;9.53;;;;;;;15.60;48.97;93761.59;1743368;80;21201;-58
2021/05/05 08:34:29;;;;;;;11.13;7.00;;;;;;;15.81;47.70;93755.93;1747265;80;21198;-56
2021/05/05 08:36:59;;;;;;;7.92;5.28;;;;;;;16.10;47.98;93738.74;1748409;80;21196;-56
2021/05/05 08:39:28;;;;;;;12.35;6.15;;;;;;;16.34;47.10;93738.97;1741757;80;21217;-61
2021/05/05 08:41:59;;;;;;;8.10;5.55;;;;;;;16.58;45.94;93732.23;1711277;81;21110;-55
2021/05/05 08:44:27;;;;;;;11.70;4.70;;;;;;;16.82;44.12;93734.55;1746708;80;21129;-61
2021/05/05 08:46:57;;;;;;;10.20;4.05;;;;;;;17.05;43.49;93733.80;1750294;80;21205;-58
2021/05/05 08:49:27;;;;;;;9.18;4.80;;;;;;;17.22;42.86;93729.68;1747172;81;21201;-58
2021/05/05 08:51:55;;;;;;;9.15;4.85;;;;;;;17.40;43.54;93729.72;1744564;81;21138;-58
2021/05/05 08:54:23;;;;;;;7.70;4.75;;;;;;;17.59;41.60;93727.81;1747123;81;21587;-60
2021/05/05 08:56:51;;;;;;;8.93;4.42;;;;;;;17.82;42.65;93725.75;1745999;80;21256;-62
2021/05/05 08:59:19;;;;;;;5.40;3.70;;;;;;;18.03;41.49;93719.13;1717766;81;21027;-56
2021/05/05 09:01:48;;;;;;;8.33;4.78;;;;;;;18.23;42.31;93707.67;1713939;82;22431;-56
2021/05/05 09:04:16;;;;;;;7.97;4.78;;;;;;;18.48;41.74;93701.50;1694296;80;26148;-56
2021/05/05 09:06:58;;;;;;;8.10;4.72;;;;;;;18.65;39.72;93697.23;1688180;83;21152;-58
2021/05/05 09:09:44;;;;;;;10.58;5.17;;;;;;;18.80;36.95;93704.53;1690212;83;21633;-61
2021/05/05 09:12:23;;;;;;;9.73;4.97;;;;;;;18.85;36.66;93705.75;1691103;82;21148;-56
2021/05/05 09:15:13;;;;;;;7.30;4.45;;;;;;;18.83;35.96;93692.33;1699339;82;21197;-59
2021/05/05 09:17:52;;;;;;;6.33;3.72;;;;;;;18.92;37.69;93690.58;1659919;85;21197;-56
2021/05/05 09:20:31;;;;;;;17.25;4.83;;;;;;;19.19;38.58;93688.08;1679775;83;22482;-58
2021/05/05 09:23:04;;;;;;;12.03;5.35;;;;;;;19.45;37.15;93679.09;1670293;83;21252;-56
2021/05/05 09:25:41;;;;;;;8.85;4.17;;;;;;;19.72;35.93;93683.52;1678761;83;21305;-55
2021/05/05 09:28:18;;;;;;;6.47;3.22;;;;;;;19.99;34.30;93685.09;1713140;82;21212;-56
2021/05/05 09:30:52;;;;;;;10.58;4.10;;;;;;;20.14;34.79;93669.35;1682964;82;21229;-55
2021/05/05 09:33:35;;;;;;;25.20;6.15;;;;;;;20.26;32.70;93672.83;1692149;82;21627;-56
2021/05/05 09:36:06;;;;;;;14.28;4.45;;;;;;;20.17;32.93;93659.92;1700582;82;21157;-57
2021/05/05 09:38:49;;;;;;;14.05;4.20;;;;;;;20.08;32.57;93665.17;1675472;82;21149;-54
2021/05/05 09:41:28;;;;;;;15.93;4.72;;;;;;;20.11;33.26;93653.67;1708303;82;21217;-54
2021/05/05 09:44:06;;;;;;;16.42;4.70;;;;;;;20.22;32.72;93659.80;1701209;84;21180;-56
2021/05/05 09:46:43;;;;;;;7.45;3.75;;;;;;;20.18;33.63;93662.83;1655789;84;21165;-53
2021/05/05 09:49:37;;;;;;;11.25;4.25;;;;;;;20.10;33.86;93663.99;1679269;84;21220;-57
2021/05/05 09:52:15;;;;;;;9.98;4.33;;;;;;;20.00;33.81;93661.46;1683043;83;21193;-53
2021/05/05 09:55:00;;;;;;;7.20;3.75;;;;;;;19.85;33.96;93657.02;1685786;84;21435;-56
2021/05/05 09:57:32;;;;;;;11.75;3.58;;;;;;;19.78;34.12;93658.39;1689946;83;21282;-54
2021/05/05 10:00:18;;;;;;;;;;;;;;;19.70;34.06;93656.12;1639284;86;21543;-55
2021/05/05 10:02:50;;;;;;;18.80;4.25;;;;;;;19.69;34.50;93654.63;1686033;84;20941;-57
2021/05/05 10:05:29;;;;;;;12.85;3.85;;;;;;;19.80;34.84;93645.31;1647765;86;21151;-58
2021/05/05 10:08:00;;;;;;;5.72;3.52;;;;;;;19.93;34.02;93648.88;1669922;85;21345;-54
2021/05/05 10:10:32;;;;;;;4.67;3.02;;;;;;;20.00;34.64;93641.92;1686770;85;21245;-56
2021/05/05 10:13:03;;;;;;;7.37;3.50;;;;;;;20.06;35.94;93639.17;1685910;85;21551;-55
2021/05/05 10:15:35;;;;;;;5.90;3.65;;;;;;;20.13;34.37;93640.58;1688883;84;21239;-55
2021/05/05 10:18:04;;;;;;;12.07;3.45;;;;;;;20.16;33.71;93642.41;1695914;83;21511;-56
2021/05/05 10:20:32;;;;;;;11.60;3.65;;;;;;;20.20;33.76;93637.91;1680711;83;21314;-56
2021/05/05 10:23:02;;;;;;;11.85;4.03;;;;;;;20.22;33.17;93638.86;1629480;86;21453;-55
2021/05/05 10:25:31;;;;;;;8.78;3.20;;;;;;;20.23;33.12;93631.24;1663920;84;21444;-55
2021/05/05 10:28:00;;;;;;;5.53;2.80;;;;;;;20.28;32.65;93628.98;1686823;85;21160;-55
2021/05/05 10:30:31;;;;;;;17.45;4.95;;;;;;;20.32;32.66;93630.80;1649908;86;21234;-55
2021/05/05 10:33:03;;;;;;;7.17;4.03;;;;;;;20.38;32.13;93633.60;1684419;84;21754;-56
2021/05/05 10:35:31;;;;;;;13.15;3.83;;;;;;;20.55;32.36;93630.50;1644303;85;21151;-54
2021/05/05 10:40:37;;;;;;;5.25;2.92;;;;;;;20.59;32.19;93629.53;1871076;75;21874;-54
2021/05/05 10:43:07;;;;;;;18.67;4.45;;;;;;;20.49;31.87;93632.64;1838936;78;21169;-55
2021/05/05 10:45:42;;;;;;;10.82;4.40;;;;;;;20.38;31.45;93628.02;1839048;77;22206;-53
2021/05/05 10:48:18;;;;;;;8.40;4.60;;;;;;;20.30;31.39;93636.18;1839582;77;21143;-53
2021/05/05 10:50:55;;;;;;;9.48;4.25;;;;;;;20.30;31.30;93629.19;1838062;78;21148;-56
2021/05/05 10:53:38;;;;;;;11.15;4.85;;;;;;;20.32;31.35;93629.41;1839012;78;21616;-54
2021/05/05 10:56:25;;;;;;;15.88;4.87;;;;;;;20.39;31.50;93627.39;1838785;78;21168;-56
2021/05/05 10:59:00;;;;;;;10.43;4.10;;;;;;;20.48;31.70;93620.72;1839827;78;21187;-52
2021/05/05 11:01:45;;;;;;;14.75;5.42;;;;;;;20.59;31.05;93619.75;1836604;78;21204;-54
2021/05/05 11:04:14;;;;;;;15.95;4.28;;;;;;;20.66;31.20;93617.69;1818623;78;21155;-52
2021/05/05 11:06:53;;;;;;;15.13;4.30;;;;;;;20.79;31.12;93610.69;1790762;79;21178;-54
2021/05/05 11:09:27;;;;;;;15.63;4.37;;;;;;;20.75;31.31;93615.86;1804245;78;21204;-55
2021/05/05 11:11:55;;;;;;;12.47;4.35;;;;;;;20.65;31.57;93617.58;1806784;79;21416;-50
2021/05/05 11:14:32;;;;;;;13.90;5.20;;;;;;;20.49;31.79;93618.66;1806335;78;21136;-58
2021/05/05 11:19:44;;;;;;;5.65;3.58;;;;;;;20.32;31.64;93615.44;1870404;75;22626;-54
2021/05/05 11:22:33;;;;;;;10.93;3.73;;;;;;;20.18;32.21;93611.89;1856238;77;21649;-54
2021/05/05 11:25:19;;;;;;;12.18;5.00;;;;;;;20.07;31.77;93612.75;1819434;77;22065;-59
2021/05/05 11:27:51;;;;;;;16.52;4.67;;;;;;;19.93;32.11;93612.59;1836089;76;21204;-57
2021/05/05 11:30:38;;;;;;;6.65;3.95;;;;;;;19.73;32.55;93622.23;1827337;77;21140;-55
2021/05/05 11:33:06;;;;;;;5.87;3.58;;;;;;;19.54;32.16;93619.47;1848327;76;21214;-60
2021/05/05 11:35:34;;;;;;;24.23;11.25;;;;;;;19.35;32.40;93610.39;1839930;76;21161;-55
2021/05/05 11:38:08;;;;;;;14.95;6.95;;;;;;;19.23;32.69;93606.27;1826621;76;21205;-58
2021/05/05 11:40:39;;;;;;;14.75;4.50;;;;;;;19.26;33.04;93608.02;1830918;78;21913;-57
2021/05/05 11:43:19;;;;;;;13.05;3.67;;;;;;;19.27;33.26;93604.57;1835780;78;21192;-57
2021/05/05 11:45:51;;;;;;;11.10;4.95;;;;;;;19.27;33.02;93610.91;1837361;77;21181;-55
2021/05/05 11:48:35;;;;;;;9.48;4.90;;;;;;;19.30;33.37;93612.64;1786692;77;22306;-55
2021/05/05 11:51:20;;;;;;;10.98;5.15;;;;;;;19.32;33.24;93609.30;1826462;76;21561;-57
2021/05/05 11:53:48;;;;;;;10.60;5.12;;;;;;;19.29;33.20;93611.13;1811047;77;21184;-60